createdAt,value
2022-09-20T00:04:43.425Z,4.97
2022-09-20T00:08:12.059Z,5.83
2022-09-20T02:28:06.116Z,11.00
2022-09-20T02:39:22.189Z,8.57
2022-09-20T02:42:45.007Z,9.70
2022-09-20T04:14:31.274Z,11.20
2022-09-20T04:41:56.688Z,8.20
2022-09-20T05:05:17.512Z,7.33
2022-09-20T05:08:28.212Z,9.03
2022-09-20T05:11:32.621Z,9.90
2022-09-20T05:14:22.946Z,13.47
2022-09-20T05:17:44.035Z,13.90
2022-09-20T05:20:40.282Z,6.47
2022-09-20T05:23:44.988Z,13.37
2022-09-20T05:27:05.028Z,9.97
2022-09-20T05:30:05.036Z,5.53
2022-09-20T05:33:04.112Z,7.10
2022-09-20T05:40:02.657Z,9.20
2022-09-20T05:55:32.927Z,9.40
2022-09-20T05:58:56.240Z,9.03
2022-09-20T06:09:06.443Z,27.00
2022-09-20T06:12:27.922Z,62.10
2022-09-20T06:15:44.904Z,46.53
2022-09-20T06:22:30.474Z,8.93
2022-09-20T06:25:43.048Z,8.97
2022-09-20T06:28:26.519Z,11.47
2022-09-20T06:31:01.129Z,11.03
2022-09-20T06:33:30.081Z,9.00
2022-09-20T06:36:49.089Z,8.93
2022-09-20T06:39:54.595Z,10.83
2022-09-20T06:42:27.663Z,7.23
2022-09-20T06:44:55.856Z,11.97
2022-09-20T06:47:27.275Z,8.47
2022-09-20T06:49:56.658Z,9.27
2022-09-20T06:52:24.166Z,10.47
2022-09-20T06:54:54.971Z,11.03
2022-09-20T06:57:32.203Z,5.83
2022-09-20T06:59:59.637Z,9.73
2022-09-20T07:02:34.479Z,9.57
2022-09-20T07:05:02.261Z,6.53
2022-09-20T07:09:23.097Z,8.53
2022-09-20T07:16:22.955Z,6.87
2022-09-20T07:18:52.521Z,4.97
2022-09-20T07:21:21.505Z,9.00
2022-09-20T07:23:53.979Z,8.97
2022-09-20T07:26:29.318Z,7.13
2022-09-20T07:29:08.335Z,8.43
2022-09-20T07:31:35.613Z,9.60
2022-09-20T07:34:11.131Z,9.03
2022-09-20T07:36:38.526Z,6.47
2022-09-20T07:39:09.576Z,10.70
2022-09-20T07:41:36.781Z,8.57
2022-09-20T07:44:21.651Z,7.37
2022-09-20T07:46:53.932Z,8.87
2022-09-20T07:49:22.710Z,5.57
2022-09-20T07:52:12.781Z,7.97
2022-09-20T07:54:42.534Z,7.50
2022-09-20T07:57:17.260Z,5.53
2022-09-20T07:59:44.631Z,9.00
2022-09-20T08:02:17.627Z,5.47
2022-09-20T08:04:45.138Z,10.90
2022-09-20T08:07:12.849Z,7.63
2022-09-20T08:09:45.317Z,6.53
2022-09-20T08:15:08.457Z,6.97
2022-09-20T08:17:42.396Z,6.93
2022-09-20T08:20:27.512Z,5.63
2022-09-20T08:23:19.497Z,4.70
2022-09-20T08:25:51.853Z,9.70
2022-09-20T08:28:28.248Z,6.67
2022-09-20T08:31:14.229Z,5.00
2022-09-20T08:33:42.705Z,5.63
2022-09-20T08:36:16.155Z,7.27
2022-09-20T08:41:40.696Z,6.27
2022-09-20T08:44:47.026Z,6.63
2022-09-20T08:47:17.053Z,6.63
2022-09-20T08:49:47.426Z,3.57
2022-09-20T08:52:25.465Z,4.70
2022-09-20T08:54:57.057Z,4.83
2022-09-20T08:57:28.740Z,4.87
2022-09-20T09:00:06.596Z,4.83
2022-09-20T09:03:04.507Z,11.90
2022-09-20T09:05:45.343Z,6.13
2022-09-20T09:08:27.663Z,3.77
2022-09-20T09:11:05.592Z,5.97
2022-09-20T09:13:37.209Z,5.60
2022-09-20T09:21:30.474Z,2.90
2022-09-20T09:24:16.487Z,2.80
2022-09-20T09:26:43.915Z,4.90
2022-09-20T09:29:20.002Z,6.07
2022-09-20T09:31:56.152Z,5.93
2022-09-20T09:34:26.372Z,4.80
2022-09-20T09:36:57.826Z,4.93
2022-09-20T09:39:58.069Z,12.23
2022-09-20T09:42:28.979Z,6.20
2022-09-20T09:45:30.772Z,7.67
2022-09-20T09:48:01.842Z,4.97
2022-09-20T09:50:34.528Z,7.80
2022-09-20T09:53:22.573Z,11.23
2022-09-20T09:56:27.683Z,7.23
2022-09-20T09:59:10.734Z,7.57
2022-09-20T10:01:50.784Z,5.43
2022-09-20T10:04:48.719Z,4.30
2022-09-20T10:07:33.024Z,5.33
2022-09-20T10:10:41.571Z,3.30
2022-09-20T10:13:17.674Z,4.20
2022-09-20T10:16:13.045Z,3.70
2022-09-20T10:19:23.566Z,2.83
2022-09-20T10:22:01.962Z,4.40
2022-09-20T10:25:15.185Z,4.60
2022-09-20T10:28:48.725Z,3.20
2022-09-20T10:31:57.667Z,2.23
2022-09-20T10:34:27.906Z,2.43
2022-09-20T10:37:59.442Z,4.27
2022-09-20T10:44:49.873Z,5.77
2022-09-20T10:47:30.018Z,4.57
2022-09-20T10:51:05.332Z,3.63
2022-09-20T10:54:27.554Z,6.73
2022-09-20T11:09:34.586Z,4.70
2022-09-20T11:12:38.051Z,5.17
2022-09-20T11:15:24.590Z,4.27
2022-09-20T11:15:36.596Z,3.10
2022-09-20T11:18:24.765Z,4.93
2022-09-20T11:21:30.604Z,5.43
2022-09-20T11:24:44.730Z,3.67
2022-09-20T11:27:31.024Z,3.97
2022-09-20T11:30:23.124Z,4.10
2022-09-20T11:33:05.242Z,3.97
2022-09-20T11:36:06.703Z,19.48
2022-09-20T11:42:16.096Z,9.60
2022-09-20T11:44:49.453Z,4.20
2022-09-20T11:47:54.592Z,6.67
2022-09-20T11:51:31.546Z,4.10
2022-09-20T11:54:30.856Z,2.00
2022-09-20T11:56:59.883Z,1.93
2022-09-20T12:03:22.559Z,3.17
2022-09-20T12:09:01.430Z,2.43
2022-09-20T12:11:53.629Z,1.80
2022-09-20T12:15:24.455Z,2.80
2022-09-20T12:17:52.548Z,4.70
2022-09-20T12:20:51.752Z,3.73
2022-09-20T12:27:03.460Z,4.73
2022-09-20T12:30:46.141Z,4.30
2022-09-20T12:34:00.090Z,3.70
2022-09-20T12:37:27.631Z,2.30
2022-09-20T12:39:56.108Z,4.13
2022-09-20T12:42:34.734Z,3.37
2022-09-20T12:45:16.666Z,2.43
2022-09-20T12:47:54.662Z,2.60
2022-09-20T12:51:06.090Z,3.67
2022-09-20T12:53:36.216Z,3.37
2022-09-20T12:56:08.069Z,4.40
2022-09-20T12:58:55.640Z,5.57
2022-09-20T13:01:22.821Z,3.47
2022-09-20T13:03:50.714Z,3.47
2022-09-20T13:06:26.207Z,4.03
2022-09-20T13:09:04.488Z,4.13
2022-09-20T13:11:52.699Z,6.83
2022-09-20T13:14:43.733Z,4.83
2022-09-20T13:17:33.033Z,4.57
2022-09-20T13:20:15.120Z,6.00
2022-09-20T13:22:50.673Z,4.37
2022-09-20T13:25:20.579Z,2.77
2022-09-20T13:28:21.965Z,4.57
2022-09-20T13:31:21.973Z,4.17
2022-09-20T13:37:43.261Z,3.20
2022-09-20T13:41:04.800Z,2.97
2022-09-20T13:43:54.533Z,4.63
2022-09-20T13:47:00.808Z,4.43
2022-09-20T13:49:50.516Z,4.17
2022-09-20T13:52:25.243Z,3.53
2022-09-20T13:54:56.612Z,3.20
2022-09-20T13:57:28.169Z,4.07
2022-09-20T13:59:57.346Z,3.23
2022-09-20T14:02:28.121Z,2.37
2022-09-20T14:05:05.455Z,4.10
2022-09-20T14:07:36.802Z,4.07
2022-09-20T14:10:38.965Z,3.57
2022-09-20T14:13:19.847Z,2.80
2022-09-20T14:16:12.644Z,2.07
2022-09-20T14:18:50.558Z,2.17
2022-09-20T14:28:55.558Z,3.40
2022-09-20T14:31:59.456Z,4.20
2022-09-20T14:34:29.299Z,3.43
2022-09-20T14:37:09.868Z,6.77
2022-09-20T14:40:25.994Z,5.60
2022-09-20T14:43:06.418Z,4.37
2022-09-20T14:45:36.833Z,6.17
2022-09-20T14:48:11.191Z,5.20
2022-09-20T14:51:16.562Z,5.43
2022-09-20T14:54:07.640Z,3.20
2022-09-20T14:56:58.465Z,5.20
2022-09-20T14:59:42.263Z,6.87
2022-09-20T15:02:41.094Z,6.87
2022-09-20T15:05:28.241Z,5.50
2022-09-20T15:07:57.727Z,2.30
2022-09-20T15:10:27.642Z,3.20
2022-09-20T15:12:57.372Z,3.47
2022-09-20T15:15:59.544Z,2.67
2022-09-20T15:18:34.896Z,4.23
2022-09-20T15:21:06.038Z,3.47
2022-09-20T15:23:44.012Z,2.97
2022-09-20T15:26:15.191Z,8.10
2022-09-20T15:28:53.447Z,4.60
2022-09-20T15:31:23.135Z,1.97
2022-09-20T15:33:55.923Z,1.30
2022-09-20T15:36:41.630Z,3.60
2022-09-20T15:39:23.837Z,1.57
2022-09-20T15:41:54.512Z,3.43
2022-09-20T15:44:28.747Z,7.57
2022-09-20T15:46:58.347Z,4.47
2022-09-20T15:49:26.760Z,3.13
2022-09-20T15:51:54.390Z,4.63
2022-09-20T15:54:28.589Z,7.63
2022-09-20T15:56:56.002Z,10.67
2022-09-20T15:59:23.607Z,9.37
2022-09-20T16:01:51.806Z,6.90
2022-09-20T16:04:21.537Z,8.43
2022-09-20T16:06:50.521Z,6.83
2022-09-20T16:09:19.950Z,5.90
2022-09-20T16:11:51.510Z,5.00
2022-09-20T16:14:18.868Z,3.53
2022-09-20T16:16:46.301Z,3.00
2022-09-20T16:19:25.095Z,4.10
2022-09-20T16:21:58.324Z,3.37
2022-09-20T16:24:28.998Z,8.50
2022-09-20T16:26:57.231Z,3.23
2022-09-20T16:29:27.057Z,3.60
2022-09-20T16:31:59.482Z,3.90
2022-09-20T16:34:32.229Z,3.33
2022-09-20T16:37:13.097Z,2.63
2022-09-20T16:39:44.463Z,5.53
2022-09-20T16:42:13.461Z,2.00
2022-09-20T16:44:43.976Z,21.60
2022-09-20T16:47:23.107Z,17.63
2022-09-20T16:49:50.609Z,4.13
2022-09-20T16:52:20.413Z,1.63
2022-09-20T16:54:47.817Z,4.60
2022-09-20T16:57:15.644Z,10.57
2022-09-20T16:59:43.346Z,20.90
2022-09-20T17:02:12.399Z,10.30
2022-09-20T17:04:39.956Z,10.80
2022-09-20T17:07:07.201Z,11.30
2022-09-20T17:09:34.763Z,11.20
2022-09-20T17:12:04.388Z,5.70
2022-09-20T17:14:31.525Z,6.53
2022-09-20T17:16:58.902Z,9.03
2022-09-20T17:19:26.751Z,5.50
2022-09-20T17:21:53.988Z,9.70
2022-09-20T17:24:22.795Z,8.60
2022-09-20T17:26:51.200Z,3.73
2022-09-20T17:29:20.109Z,3.13
2022-09-20T17:32:05.834Z,5.00
2022-09-20T17:34:33.720Z,9.07
2022-09-20T17:37:01.790Z,6.33
2022-09-20T17:39:29.515Z,7.97
2022-09-20T17:41:56.860Z,2.40
2022-09-20T17:44:29.412Z,4.83
2022-09-20T17:46:57.620Z,3.70
2022-09-20T17:49:26.873Z,3.07
2022-09-20T17:51:55.796Z,4.97
2022-09-20T17:54:24.641Z,4.00
2022-09-20T17:56:53.997Z,7.90
2022-09-20T17:59:21.798Z,3.10
2022-09-20T18:02:01.171Z,3.70
2022-09-20T18:04:28.461Z,7.47
2022-09-20T18:06:55.761Z,5.50
2022-09-20T18:09:26.485Z,3.50
2022-09-20T18:11:55.095Z,5.67
2022-09-20T18:14:30.188Z,5.07
2022-09-20T18:17:01.106Z,3.40
2022-09-20T18:19:34.638Z,6.30
2022-09-20T18:22:03.244Z,2.43
2022-09-20T18:24:31.404Z,3.87
2022-09-20T18:27:00.778Z,7.37
2022-09-20T18:29:29.543Z,7.27
2022-09-20T18:31:58.014Z,3.77
2022-09-20T18:34:30.603Z,1.13
2022-09-20T18:36:59.945Z,3.13
2022-09-20T18:39:29.619Z,3.33
2022-09-20T18:41:57.552Z,1.50
2022-09-20T18:44:30.573Z,3.43
2022-09-20T18:46:58.766Z,4.23
2022-09-20T18:49:26.000Z,2.47
2022-09-20T18:51:53.214Z,2.83
2022-09-20T18:54:20.541Z,1.73
2022-09-20T18:56:49.862Z,6.37
2022-09-20T19:04:13.698Z,3.30
2022-09-20T19:07:04.191Z,10.63
2022-09-20T19:09:57.131Z,6.60
2022-09-20T19:21:44.638Z,5.53
2022-09-20T19:28:03.514Z,3.53
2022-09-20T19:30:34.460Z,4.70
2022-09-20T19:33:28.280Z,3.63
2022-09-20T19:43:31.579Z,5.67
2022-09-20T20:25:41.382Z,7.43
2022-09-20T20:39:56.724Z,4.93
2022-09-20T20:43:30.401Z,4.23
2022-09-20T20:50:50.226Z,6.97
2022-09-20T21:06:28.350Z,4.57
2022-09-20T21:17:12.446Z,4.40
2022-09-20T21:20:59.366Z,3.87
2022-09-20T21:24:57.124Z,3.30
2022-09-20T21:28:34.358Z,3.87
2022-09-20T21:41:45.535Z,5.03
2022-09-20T22:03:37.942Z,2.47
2022-09-20T22:06:40.388Z,2.00
2022-09-20T22:13:28.198Z,3.17
2022-09-20T22:17:01.273Z,6.30
2022-09-20T22:20:27.730Z,6.23
2022-09-20T22:23:13.913Z,4.10
2022-09-20T22:26:24.694Z,4.17
2022-09-20T22:29:15.185Z,4.17
2022-09-20T22:33:27.392Z,6.23
2022-09-20T22:41:36.974Z,3.17
2022-09-20T22:44:53.174Z,2.40
2022-09-20T22:51:48.720Z,5.27
2022-09-20T22:55:06.928Z,2.53
2022-09-20T23:01:50.595Z,4.73
2022-09-20T23:05:09.365Z,1.97
2022-09-20T23:08:48.495Z,2.60
2022-09-20T23:11:37.425Z,3.87
2022-09-20T23:18:08.531Z,4.40
2022-09-20T23:22:09.436Z,6.00
2022-09-20T23:28:40.561Z,6.33
2022-09-20T23:35:03.506Z,4.30
2022-09-20T23:38:15.557Z,4.20
2022-09-20T23:41:22.633Z,3.57
2022-09-20T23:44:11.595Z,2.57
2022-09-20T23:47:05.624Z,3.07
2022-09-20T23:50:25.856Z,2.73
2022-09-20T23:53:42.820Z,2.50
2022-09-20T23:56:56.096Z,4.60
